SiteLock Weer in Ekeren en de Haven van Antwerpen - Nearby METAR Reports

Nearby METAR Reports

 

EBAW - Airport Antwerp
Ververst: 20/08/2018 22:50
Meestal bewolkt
Meestal bewolkt
 Wind van N
Wind: N 6 km/h
Temperatuur: 20°C
Dauwpunt: 16°C
Vochtigheid: 78%
Barometer: 1021 hPa
Clouds: Meestal bewolkt
Visibility: 10 km
Cloud details: Meestal bewolkt 1372 m
2018/08/20 20:50 EBAW 202050Z 01003KT 9999 BKN045 20/16 Q1021 NOSIG
EBBR - Brussels National Airport
Ververst: 20/08/2018 22:50
Meestal bewolkt
Meestal bewolkt
 Wind van NW
Wind: NW 6 km/h
Temperatuur: 20°C
Dauwpunt: 16°C
Vochtigheid: 78%
Barometer: 1021 hPa
Clouds: Meestal bewolkt
Visibility: 10 km
Cloud details: Meestal bewolkt 1067 m
2018/08/20 20:50 EBBR 202050Z 32003KT 9999 BKN035 20/16 Q1021 NOSIG
 
EBBL - Kleine Brogel Military Airport
Ververst: 20/08/2018 22:55
Zwaar bewolkt
Zwaar bewolkt
 Wind van varies
Wind: varies 4 km/h
Temperatuur: 20°C
Dauwpunt: 17°C
Vochtigheid: 83%
Barometer: 1021 hPa
Clouds: Zwaar bewolkt
Visibility: 10 km
Cloud details: Meestal bewolkt 1280 m
Zwaar bewolkt 1981 m
2018/08/20 20:55 EBBL 202055Z AUTO VRB02KT 9999 BKN042/// OVC065/// 20/17 Q1021 BLU
EBCI - Charleroi Airport
Ververst: 20/08/2018 22:50
Lichte regen, Showers, Meestal bewolkt
Lichte regen, Showers, Meestal bewolkt
 Wind van varies
Wind: varies 4 km/h
Temperatuur: 20°C
Dauwpunt: 17°C
Vochtigheid: 83%
Barometer: 1021 hPa
Overzicht: Lichte regen, Showers
Clouds: Meestal bewolkt
Visibility: 10 km
Cloud details: Gedeeltelijk bewolkt 610 m
Meestal bewolkt 1067 m
2018/08/20 20:50 EBCI 202050Z VRB02KT 9999 -SHRA SCT020 BKN035 20/17 Q1021 NOSIG
 
LERS - Reus Airport
Ververst: 20/08/2018 23:00
Helder
Helder
 Wind van NO
Wind: NO 7 km/h
Temperatuur: 24°C
Dauwpunt: 21°C
Vochtigheid: 83%
Barometer: 1017 hPa
Overzicht: Helder
Visibility: greater than 10 km
2018/08/20 21:00 LERS 202100Z 05004KT CAVOK 24/21 Q1017
LIML - Milan Airport
Ververst: 20/08/2018 22:50
Gedeeltelijk bewolkt
Gedeeltelijk bewolkt
 Wind van ONO
Wind: ONO 9 km/h
Temperatuur: 28°C
Hitte-Index: 28°C
Dauwpunt: 17°C
Vochtigheid: 51%
Barometer: 1015 hPa
Clouds: Gedeeltelijk bewolkt
Visibility: 10 km
Cloud details: Gedeeltelijk bewolkt 1829 m
2018/08/20 20:50 LIML 202050Z 06005KT 9999 SCT060 28/17 Q1015 NOSIG
 
LPMA - Madeira Airport
Ververst: 20/08/2018 23:00
Few Clouds
Few Clouds
 Wind van varies
Wind: varies 4 km/h
Temperatuur: 23°C
Dauwpunt: 19°C
Vochtigheid: 78%
Barometer: 1017 hPa
Clouds: Few Clouds
Visibility: 10 km
Cloud details: Few Clouds 488 m
2018/08/20 21:00 LPMA 202100Z VRB02KT 9999 FEW016 23/19 Q1017
LGKO - Kos Airport
Ververst: 20/08/2018 22:50
Helder
Helder
 Wind van WNW
Wind: WNW 13 km/h
Temperatuur: 24°C
Dauwpunt: 20°C
Vochtigheid: 78%
Barometer: 1008 hPa
Overzicht: Helder
Visibility: greater than 10 km
2018/08/20 20:50 LGKO 202050Z 29007KT CAVOK 24/20 Q1008
 
LIRQ - Firenze Airport
Ververst: 20/08/2018 22:50
Helder
Helder
 Wind van varies
Wind: varies 2 km/h
Temperatuur: 26°C
Dauwpunt: 17°C
Vochtigheid: 58%
Barometer: 1014 hPa
Overzicht: Helder
Visibility: greater than 10 km
2018/08/20 20:50 LIRQ 202050Z VRB01KT CAVOK 26/17 Q1014
LIRP - Pisa Airport
Ververst: 20/08/2018 22:45
Helder
Helder
 Wind van ZO
Wind: ZO 6 km/h
Temperatuur: 24°C
Dauwpunt: 21°C
Vochtigheid: 83%
Barometer: 1013 hPa
Overzicht: Helder
Visibility: greater than 10 km
2018/08/20 20:45 LIRP 202045Z 14003KT CAVOK 24/21 Q1013 NOSIG